sensor_id;sensor_type;location;lat;lon;timestamp;pressure;altitude;pressure_sealevel;temperature;humidity
43486;BME280;30447;48.742;8.972;2023-11-19T00:01:57;96716.19;;;8.02;100.00
43486;BME280;30447;48.742;8.972;2023-11-19T00:04:24;96710.19;;;8.05;100.00
43486;BME280;30447;48.742;8.972;2023-11-19T00:06:51;96704.16;;;8.03;100.00
43486;BME280;30447;48.742;8.972;2023-11-19T00:09:17;96702.47;;;8.10;100.00
43486;BME280;30447;48.742;8.972;2023-11-19T00:11:44;96698.22;;;8.15;100.00
43486;BME280;30447;48.742;8.972;2023-11-19T00:14:11;96688.00;;;8.33;100.00
43486;BME280;30447;48.742;8.972;2023-11-19T00:16:37;96687.06;;;8.25;100.00
43486;BME280;30447;48.742;8.972;2023-11-19T00:19:04;96683.66;;;8.34;100.00
43486;BME280;30447;48.742;8.972;2023-11-19T00:21:31;96686.25;;;8.36;100.00
43486;BME280;30447;48.742;8.972;2023-11-19T00:23:59;96694.03;;;8.37;100.00
43486;BME280;30447;48.742;8.972;2023-11-19T00:26:26;96703.44;;;8.29;100.00
43486;BME280;30447;48.742;8.972;2023-11-19T00:28:52;96685.37;;;8.35;100.00
43486;BME280;30447;48.742;8.972;2023-11-19T00:31:19;96678.56;;;8.45;100.00
43486;BME280;30447;48.742;8.972;2023-11-19T00:33:45;96670.91;;;8.59;100.00
43486;BME280;30447;48.742;8.972;2023-11-19T00:36:12;96675.22;;;8.68;100.00
43486;BME280;30447;48.742;8.972;2023-11-19T00:38:39;96676.03;;;8.57;100.00
43486;BME280;30447;48.742;8.972;2023-11-19T00:41:05;96663.16;;;8.65;100.00
43486;BME280;30447;48.742;8.972;2023-11-19T00:43:32;96664.88;;;8.58;100.00
43486;BME280;30447;48.742;8.972;2023-11-19T00:45:59;96663.19;;;8.68;100.00
43486;BME280;30447;48.742;8.972;2023-11-19T00:48:25;96658.88;;;8.70;100.00
43486;BME280;30447;48.742;8.972;2023-11-19T00:50:53;96657.22;;;8.90;100.00
43486;BME280;30447;48.742;8.972;2023-11-19T00:53:19;96652.00;;;8.83;100.00
43486;BME280;30447;48.742;8.972;2023-11-19T00:55:46;96649.44;;;8.82;100.00
43486;BME280;30447;48.742;8.972;2023-11-19T00:58:12;96641.69;;;8.79;100.00
43486;BME280;30447;48.742;8.972;2023-11-19T01:00:39;96646.84;;;8.83;100.00
43486;BME280;30447;48.742;8.972;2023-11-19T01:03:06;96639.91;;;8.65;100.00
43486;BME280;30447;48.742;8.972;2023-11-19T01:05:33;96649.41;;;8.77;100.00
43486;BME280;30447;48.742;8.972;2023-11-19T01:08:00;96639.94;;;8.82;100.00
43486;BME280;30447;48.742;8.972;2023-11-19T01:10:26;96641.69;;;8.85;100.00
43486;BME280;30447;48.742;8.972;2023-11-19T01:12:53;96646.84;;;8.79;100.00
43486;BME280;30447;48.742;8.972;2023-11-19T01:15:20;96646.00;;;8.92;100.00
43486;BME280;30447;48.742;8.972;2023-11-19T01:17:46;96643.41;;;8.80;100.00
43486;BME280;30447;48.742;8.972;2023-11-19T01:20:13;96639.09;;;8.86;100.00
43486;BME280;30447;48.742;8.972;2023-11-19T01:22:40;96633.91;;;8.83;100.00
43486;BME280;30447;48.742;8.972;2023-11-19T01:25:07;96628.81;;;8.99;100.00
43486;BME280;30447;48.742;8.972;2023-11-19T01:27:33;96620.19;;;9.02;100.00
43486;BME280;30447;48.742;8.972;2023-11-19T01:30:02;96621.03;;;9.00;100.00
43486;BME280;30447;48.742;8.972;2023-11-19T01:32:32;96615.88;;;9.05;100.00
43486;BME280;30447;48.742;8.972;2023-11-19T01:34:59;96623.63;;;9.00;100.00
43486;BME280;30447;48.742;8.972;2023-11-19T01:37:25;96621.91;;;9.17;100.00
43486;BME280;30447;48.742;8.972;2023-11-19T01:39:52;96621.91;;;9.07;100.00
43486;BME280;30447;48.742;8.972;2023-11-19T01:42:18;96626.22;;;8.99;100.00
43486;BME280;30447;48.742;8.972;2023-11-19T01:44:57;96624.50;;;9.12;100.00
43486;BME280;30447;48.742;8.972;2023-11-19T01:47:25;96622.75;;;8.98;100.00
43486;BME280;30447;48.742;8.972;2023-11-19T01:49:56;96617.59;;;9.00;100.00
43486;BME280;30447;48.742;8.972;2023-11-19T01:52:25;96616.72;;;8.99;100.00
43486;BME280;30447;48.742;8.972;2023-11-19T01:54:54;96619.31;;;9.06;100.00
43486;BME280;30447;48.742;8.972;2023-11-19T01:57:22;96621.91;;;9.12;100.00
43486;BME280;30447;48.742;8.972;2023-11-19T01:59:52;96613.28;;;9.27;100.00
43486;BME280;30447;48.742;8.972;2023-11-19T02:02:20;96609.84;;;9.33;100.00
43486;BME280;30447;48.742;8.972;2023-11-19T02:04:49;96612.41;;;9.36;100.00
43486;BME280;30447;48.742;8.972;2023-11-19T02:07:17;96610.72;;;9.38;100.00
43486;BME280;30447;48.742;8.972;2023-11-19T02:09:44;96621.03;;;9.43;100.00
43486;BME280;30447;48.742;8.972;2023-11-19T02:12:11;96615.88;;;9.44;100.00
43486;BME280;30447;48.742;8.972;2023-11-19T02:14:38;96608.97;;;9.48;100.00
43486;BME280;30447;48.742;8.972;2023-11-19T02:17:05;96606.38;;;9.49;100.00
43486;BME280;30447;48.742;8.972;2023-11-19T02:19:31;96611.56;;;9.48;100.00
43486;BME280;30447;48.742;8.972;2023-11-19T02:21:58;96602.94;;;9.55;100.00
43486;BME280;30447;48.742;8.972;2023-11-19T02:24:29;96602.94;;;9.53;100.00
43486;BME280;30447;48.742;8.972;2023-11-19T02:27:31;96590.84;;;9.59;100.00
43486;BME280;30447;48.742;8.972;2023-11-19T02:30:08;96595.16;;;9.64;100.00
43486;BME280;30447;48.742;8.972;2023-11-19T02:32:35;96593.44;;;9.62;100.00
43486;BME280;30447;48.742;8.972;2023-11-19T02:35:05;96596.88;;;9.73;100.00
43486;BME280;30447;48.742;8.972;2023-11-19T02:37:34;96587.37;;;9.69;100.00
43486;BME280;30447;48.742;8.972;2023-11-19T02:40:01;96583.03;;;9.82;100.00
43486;BME280;30447;48.742;8.972;2023-11-19T02:42:31;96599.47;;;9.73;100.00
43486;BME280;30447;48.742;8.972;2023-11-19T02:44:58;96589.97;;;9.71;100.00
43486;BME280;30447;48.742;8.972;2023-11-19T02:47:25;96597.72;;;9.74;100.00
43486;BME280;30447;48.742;8.972;2023-11-19T02:49:51;96602.06;;;9.65;100.00
43486;BME280;30447;48.742;8.972;2023-11-19T02:52:19;96595.16;;;9.72;100.00
43486;BME280;30447;48.742;8.972;2023-11-19T02:54:45;96592.53;;;9.80;100.00
43486;BME280;30447;48.742;8.972;2023-11-19T02:57:12;96577.00;;;9.88;100.00
43486;BME280;30447;48.742;8.972;2023-11-19T02:59:39;96581.28;;;9.87;100.00
43486;BME280;30447;48.742;8.972;2023-11-19T03:02:08;96587.31;;;9.96;100.00
43486;BME280;30447;48.742;8.972;2023-11-19T03:04:38;96594.19;;;10.01;100.00
43486;BME280;30447;48.742;8.972;2023-11-19T03:07:06;96593.37;;;9.88;100.00
43486;BME280;30447;48.742;8.972;2023-11-19T03:09:33;96596.84;;;9.84;100.00
43486;BME280;30447;48.742;8.972;2023-11-19T03:12:01;96606.31;;;9.84;100.00
43486;BME280;30447;48.742;8.972;2023-11-19T03:14:28;96596.81;;;9.86;100.00
43486;BME280;30447;48.742;8.972;2023-11-19T03:16:55;96597.72;;;9.82;100.00
43486;BME280;30447;48.742;8.972;2023-11-19T03:19:21;96602.03;;;9.78;100.00
43486;BME280;30447;48.742;8.972;2023-11-19T03:21:48;96595.03;;;10.13;100.00
43486;BME280;30447;48.742;8.972;2023-11-19T03:24:15;96600.19;;;10.16;100.00
43486;BME280;30447;48.742;8.972;2023-11-19T03:26:41;96595.91;;;10.07;100.00
43486;BME280;30447;48.742;8.972;2023-11-19T03:29:09;96595.81;;;10.29;100.00
43486;BME280;30447;48.742;8.972;2023-11-19T03:31:35;96601.94;;;10.15;100.00
43486;BME280;30447;48.742;8.972;2023-11-19T03:34:02;96595.91;;;10.12;100.00
43486;BME280;30447;48.742;8.972;2023-11-19T03:36:32;96602.78;;;10.11;100.00
43486;BME280;30447;48.742;8.972;2023-11-19T03:39:00;96595.03;;;10.10;100.00
43486;BME280;30447;48.742;8.972;2023-11-19T03:41:27;96599.38;;;10.04;100.00
43486;BME280;30447;48.742;8.972;2023-11-19T03:43:53;96586.41;;;10.08;100.00
43486;BME280;30447;48.742;8.972;2023-11-19T03:46:20;96587.28;;;10.07;100.00
43486;BME280;30447;48.742;8.972;2023-11-19T03:48:50;96581.22;;;10.15;100.00
43486;BME280;30447;48.742;8.972;2023-11-19T03:51:17;96585.56;;;10.01;100.00
43486;BME280;30447;48.742;8.972;2023-11-19T03:53:44;96582.03;;;10.27;100.00
43486;BME280;30447;48.742;8.972;2023-11-19T03:56:12;96572.50;;;10.30;100.00
43486;BME280;30447;48.742;8.972;2023-11-19T03:58:39;96561.25;;;10.33;100.00
43486;BME280;30447;48.742;8.972;2023-11-19T04:01:10;96579.53;;;10.03;100.00
43486;BME280;30447;48.742;8.972;2023-11-19T04:03:39;96576.06;;;10.06;100.00
43486;BME280;30447;48.742;8.972;2023-11-19T04:06:06;96573.47;;;10.04;100.00
43486;BME280;30447;48.742;8.972;2023-11-19T04:08:33;96573.41;;;10.22;100.00
43486;BME280;30447;48.742;8.972;2023-11-19T04:11:03;96574.28;;;10.21;100.00
43486;BME280;30447;48.742;8.972;2023-11-19T04:13:31;96578.56;;;10.28;100.00
43486;BME280;30447;48.742;8.972;2023-11-19T04:15:58;96588.94;;;10.25;100.00
43486;BME280;30447;48.742;8.972;2023-11-19T04:18:25;96582.06;;;10.21;100.00
43486;BME280;30447;48.742;8.972;2023-11-19T04:20:51;96577.75;;;10.16;100.00
43486;BME280;30447;48.742;8.972;2023-11-19T04:23:18;96587.28;;;10.00;100.00
43486;BME280;30447;48.742;8.972;2023-11-19T04:25:45;96581.25;;;10.08;100.00
43486;BME280;30447;48.742;8.972;2023-11-19T04:28:11;96574.28;;;10.17;100.00
43486;BME280;30447;48.742;8.972;2023-11-19T04:30:38;96588.94;;;10.25;100.00
43486;BME280;30447;48.742;8.972;2023-11-19T04:33:04;96577.72;;;10.27;100.00
43486;BME280;30447;48.742;8.972;2023-11-19T04:35:32;96587.19;;;10.24;100.00
43486;BME280;30447;48.742;8.972;2023-11-19T04:37:58;96579.44;;;10.28;100.00
43486;BME280;30447;48.742;8.972;2023-11-19T04:40:25;96591.53;;;10.23;100.00
43486;BME280;30447;48.742;8.972;2023-11-19T04:42:52;96593.22;;;10.35;100.00
43486;BME280;30447;48.742;8.972;2023-11-19T04:45:18;96584.59;;;10.28;100.00
43486;BME280;30447;48.742;8.972;2023-11-19T04:47:46;96587.19;;;10.25;100.00
43486;BME280;30447;48.742;8.972;2023-11-19T04:50:13;96588.03;;;10.30;100.00
43486;BME280;30447;48.742;8.972;2023-11-19T04:52:39;96596.63;;;10.47;100.00
43486;BME280;30447;48.742;8.972;2023-11-19T04:55:06;96591.47;;;10.39;100.00
43486;BME280;30447;48.742;8.972;2023-11-19T04:57:33;96593.22;;;10.37;100.00
43486;BME280;30447;48.742;8.972;2023-11-19T05:00:00;96587.13;;;10.41;100.00
43486;BME280;30447;48.742;8.972;2023-11-19T05:02:27;96586.28;;;10.47;100.00
43486;BME280;30447;48.742;8.972;2023-11-19T05:04:53;96593.13;;;10.55;100.00
43486;BME280;30447;48.742;8.972;2023-11-19T05:07:20;96584.56;;;10.38;100.00
43486;BME280;30447;48.742;8.972;2023-11-19T05:09:46;96580.13;;;10.63;100.00
43486;BME280;30447;48.742;8.972;2023-11-19T05:12:13;96585.31;;;10.65;100.00
43486;BME280;30447;48.742;8.972;2023-11-19T05:14:40;96585.31;;;10.65;100.00
43486;BME280;30447;48.742;8.972;2023-11-19T05:17:06;96587.94;;;10.60;100.00
43486;BME280;30447;48.742;8.972;2023-11-19T05:19:34;96575.91;;;10.43;100.00
43486;BME280;30447;48.742;8.972;2023-11-19T05:22:00;96594.03;;;10.45;100.00
43486;BME280;30447;48.742;8.972;2023-11-19T05:24:27;96596.63;;;10.45;100.00
43486;BME280;30447;48.742;8.972;2023-11-19T05:26:53;96590.53;;;10.58;100.00
43486;BME280;30447;48.742;8.972;2023-11-19T05:29:20;96594.91;;;10.47;100.00
43486;BME280;30447;48.742;8.972;2023-11-19T05:31:47;96593.16;;;10.52;100.00
43486;BME280;30447;48.742;8.972;2023-11-19T05:34:14;96605.25;;;10.53;100.00
43486;BME280;30447;48.742;8.972;2023-11-19T05:36:41;96597.47;;;10.50;100.00
43486;BME280;30447;48.742;8.972;2023-11-19T05:39:07;96589.69;;;10.55;100.00
43486;BME280;30447;48.742;8.972;2023-11-19T05:41:34;96585.34;;;10.58;100.00
43486;BME280;30447;48.742;8.972;2023-11-19T05:44:01;96593.13;;;10.55;100.00
43486;BME280;30447;48.742;8.972;2023-11-19T05:46:28;96585.28;;;10.69;100.00
43486;BME280;30447;48.742;8.972;2023-11-19T05:48:54;96581.84;;;10.67;100.00
43486;BME280;30447;48.742;8.972;2023-11-19T05:51:21;96583.53;;;10.68;100.00
43486;BME280;30447;48.742;8.972;2023-11-19T05:53:50;96591.31;;;10.68;100.00
43486;BME280;30447;48.742;8.972;2023-11-19T05:56:16;96588.72;;;10.71;100.00
43486;BME280;30447;48.742;8.972;2023-11-19T05:58:47;96586.19;;;10.65;100.00
43486;BME280;30447;48.742;8.972;2023-11-19T06:01:15;96577.47;;;10.73;100.00
43486;BME280;30447;48.742;8.972;2023-11-19T06:03:42;96579.19;;;10.78;100.00
43486;BME280;30447;48.742;8.972;2023-11-19T06:06:09;96574.00;;;10.78;100.00
43486;BME280;30447;48.742;8.972;2023-11-19T06:08:36;96586.97;;;10.74;100.00
43486;BME280;30447;48.742;8.972;2023-11-19T06:11:03;96580.03;;;10.79;100.00
43486;BME280;30447;48.742;8.972;2023-11-19T06:13:30;96586.13;;;10.73;100.00
43486;BME280;30447;48.742;8.972;2023-11-19T06:15:57;96588.72;;;10.73;100.00
43486;BME280;30447;48.742;8.972;2023-11-19T06:18:23;96601.66;;;10.75;100.00
43486;BME280;30447;48.742;8.972;2023-11-19T06:20:50;96595.53;;;10.87;100.00
43486;BME280;30447;48.742;8.972;2023-11-19T06:23:16;96586.84;;;10.95;100.00
43486;BME280;30447;48.742;8.972;2023-11-19T06:25:43;96587.78;;;10.85;100.00
43486;BME280;30447;48.742;8.972;2023-11-19T06:28:10;96587.78;;;10.80;100.00
43486;BME280;30447;48.742;8.972;2023-11-19T06:30:36;96583.53;;;10.68;100.00
43486;BME280;30447;48.742;8.972;2023-11-19T06:33:03;96587.03;;;10.66;100.00
43486;BME280;30447;48.742;8.972;2023-11-19T06:35:30;96593.91;;;10.68;100.00
43486;BME280;30447;48.742;8.972;2023-11-19T06:38:02;96591.25;;;10.82;100.00
43486;BME280;30447;48.742;8.972;2023-11-19T06:40:33;96587.00;;;10.72;100.00
43486;BME280;30447;48.742;8.972;2023-11-19T06:43:03;96598.25;;;10.63;100.00
43486;BME280;30447;48.742;8.972;2023-11-19T06:45:30;96590.47;;;10.66;100.00
43486;BME280;30447;48.742;8.972;2023-11-19T06:47:57;96601.72;;;10.61;100.00
43486;BME280;30447;48.742;8.972;2023-11-19T06:50:25;96600.91;;;10.54;100.00
43486;BME280;30447;48.742;8.972;2023-11-19T06:52:51;96605.19;;;10.56;100.00
43486;BME280;30447;48.742;8.972;2023-11-19T06:55:18;96598.22;;;10.76;100.00
43486;BME280;30447;48.742;8.972;2023-11-19T06:57:44;96587.84;;;10.71;100.00
43486;BME280;30447;48.742;8.972;2023-11-19T07:00:11;96594.75;;;10.75;100.00
43486;BME280;30447;48.742;8.972;2023-11-19T07:02:38;96604.31;;;10.67;100.00
43486;BME280;30447;48.742;8.972;2023-11-19T07:05:06;96599.97;;;10.66;100.00
43486;BME280;30447;48.742;8.972;2023-11-19T07:07:34;96599.09;;;10.75;100.00
43486;BME280;30447;48.742;8.972;2023-11-19T07:10:01;96592.22;;;10.64;100.00
43486;BME280;30447;48.742;8.972;2023-11-19T07:12:30;96590.53;;;10.55;100.00
43486;BME280;30447;48.742;8.972;2023-11-19T07:14:57;96593.91;;;10.71;100.00
43486;BME280;30447;48.742;8.972;2023-11-19T07:17:24;96605.88;;;10.94;100.00
43486;BME280;30447;48.742;8.972;2023-11-19T07:19:50;96606.75;;;10.90;100.00
43486;BME280;30447;48.742;8.972;2023-11-19T07:22:17;96599.91;;;10.80;100.00
43486;BME280;30447;48.742;8.972;2023-11-19T07:24:44;96616.37;;;10.69;100.00
43486;BME280;30447;48.742;8.972;2023-11-19T07:27:10;96613.75;;;10.77;100.00
43486;BME280;30447;48.742;8.972;2023-11-19T07:29:37;96617.09;;;10.93;100.00
43486;BME280;30447;48.742;8.972;2023-11-19T07:32:04;96622.41;;;10.71;100.00
43486;BME280;30447;48.742;8.972;2023-11-19T07:34:31;96627.50;;;10.87;100.00
43486;BME280;30447;48.742;8.972;2023-11-19T07:36:57;96620.62;;;10.81;100.00
43486;BME280;30447;48.742;8.972;2023-11-19T07:39:29;96628.44;;;10.78;100.00
43486;BME280;30447;48.742;8.972;2023-11-19T07:41:55;96627.38;;;11.07;100.00
43486;BME280;30447;48.742;8.972;2023-11-19T07:44:22;96630.88;;;10.98;100.00
43486;BME280;30447;48.742;8.972;2023-11-19T07:46:49;96627.53;;;10.81;100.00
43486;BME280;30447;48.742;8.972;2023-11-19T07:49:15;96625.75;;;10.89;100.00
43486;BME280;30447;48.742;8.972;2023-11-19T07:51:42;96631.75;;;10.96;100.00
43486;BME280;30447;48.742;8.972;2023-11-19T07:54:08;96642.16;;;10.94;100.00
43486;BME280;30447;48.742;8.972;2023-11-19T07:56:35;96627.53;;;10.81;100.00
43486;BME280;30447;48.742;8.972;2023-11-19T07:59:02;96640.41;;;10.93;100.00
43486;BME280;30447;48.742;8.972;2023-11-19T08:01:29;96649.03;;;10.98;100.00
43486;BME280;30447;48.742;8.972;2023-11-19T08:03:55;96643.78;;;11.09;100.00
43486;BME280;30447;48.742;8.972;2023-11-19T08:06:22;96642.94;;;11.07;100.00
43486;BME280;30447;48.742;8.972;2023-11-19T08:08:49;96657.72;;;10.94;100.00
43486;BME280;30447;48.742;8.972;2023-11-19T08:11:15;96650.78;;;10.96;100.00
43486;BME280;30447;48.742;8.972;2023-11-19T08:13:42;96644.72;;;10.96;100.00
43486;BME280;30447;48.742;8.972;2023-11-19T08:16:09;96637.69;;;11.15;100.00
43486;BME280;30447;48.742;8.972;2023-11-19T08:18:36;96633.47;;;11.02;100.00
43486;BME280;30447;48.742;8.972;2023-11-19T08:21:02;96643.59;;;11.31;100.00
43486;BME280;30447;48.742;8.972;2023-11-19T08:23:31;96634.22;;;11.18;100.00
43486;BME280;30447;48.742;8.972;2023-11-19T08:25:58;96639.34;;;11.22;100.00
43486;BME280;30447;48.742;8.972;2023-11-19T08:28:25;96636.81;;;11.16;100.00
43486;BME280;30447;48.742;8.972;2023-11-19T08:30:51;96647.97;;;11.26;100.00
43486;BME280;30447;48.742;8.972;2023-11-19T08:33:18;96662.66;;;11.30;100.00
43486;BME280;30447;48.742;8.972;2023-11-19T08:35:45;96661.69;;;11.44;100.00
43486;BME280;30447;48.742;8.972;2023-11-19T08:38:13;96659.94;;;11.46;100.00
43486;BME280;30447;48.742;8.972;2023-11-19T08:40:40;96648.72;;;11.42;100.00
43486;BME280;30447;48.742;8.972;2023-11-19T08:43:06;96659.09;;;11.45;100.00
43486;BME280;30447;48.742;8.972;2023-11-19T08:45:33;96658.22;;;11.45;100.00
43486;BME280;30447;48.742;8.972;2023-11-19T08:48:00;96665.03;;;11.58;100.00
43486;BME280;30447;48.742;8.972;2023-11-19T08:50:26;96663.34;;;11.49;100.00
43486;BME280;30447;48.742;8.972;2023-11-19T08:52:53;96651.16;;;11.62;100.00
43486;BME280;30447;48.742;8.972;2023-11-19T08:55:19;96654.66;;;11.57;100.00
43486;BME280;30447;48.742;8.972;2023-11-19T08:57:46;96659.78;;;11.68;100.00
43486;BME280;30447;48.742;8.972;2023-11-19T09:00:13;96658.91;;;11.64;100.00
43486;BME280;30447;48.742;8.972;2023-11-19T09:02:40;96658.88;;;11.70;100.00
43486;BME280;30447;48.742;8.972;2023-11-19T09:05:07;96664.91;;;11.74;100.00
43486;BME280;30447;48.742;8.972;2023-11-19T09:07:34;96662.25;;;11.78;100.00
43486;BME280;30447;48.742;8.972;2023-11-19T09:10:01;96656.97;;;11.89;100.00
43486;BME280;30447;48.742;8.972;2023-11-19T09:12:28;96654.28;;;11.97;100.00
43486;BME280;30447;48.742;8.972;2023-11-19T09:14:54;96663.75;;;12.03;100.00
43486;BME280;30447;48.742;8.972;2023-11-19T09:17:21;96668.03;;;12.10;100.00
43486;BME280;30447;48.742;8.972;2023-11-19T09:19:47;96660.16;;;12.20;100.00
43486;BME280;30447;48.742;8.972;2023-11-19T09:22:14;96659.91;;;12.40;100.00
43486;BME280;30447;48.742;8.972;2023-11-19T09:24:41;96664.53;;;12.16;100.00
43486;BME280;30447;48.742;8.972;2023-11-19T09:27:08;96660.94;;;12.26;100.00
43486;BME280;30447;48.742;8.972;2023-11-19T09:29:35;96670.56;;;12.16;100.00
43486;BME280;30447;48.742;8.972;2023-11-19T09:32:02;96680.00;;;12.25;100.00
43486;BME280;30447;48.742;8.972;2023-11-19T09:34:29;96677.28;;;12.36;100.00
43486;BME280;30447;48.742;8.972;2023-11-19T09:36:56;96674.47;;;12.55;100.00
43486;BME280;30447;48.742;8.972;2023-11-19T09:39:23;96676.81;;;12.75;100.00
43486;BME280;30447;48.742;8.972;2023-11-19T09:41:52;96660.06;;;12.96;100.00
43486;BME280;30447;48.742;8.972;2023-11-19T09:44:19;96670.56;;;12.90;100.00
43486;BME280;30447;48.742;8.972;2023-11-19T09:46:46;96657.88;;;13.28;100.00
43486;BME280;30447;48.742;8.972;2023-11-19T09:49:21;96658.19;;;13.08;100.00
43486;BME280;30447;48.742;8.972;2023-11-19T09:51:49;96657.19;;;13.15;100.00
43486;BME280;30447;48.742;8.972;2023-11-19T09:54:16;96670.84;;;13.30;100.00
43486;BME280;30447;48.742;8.972;2023-11-19T09:56:43;96645.72;;;13.30;100.00
43486;BME280;30447;48.742;8.972;2023-11-19T09:59:10;96651.53;;;13.45;100.00
43486;BME280;30447;48.742;8.972;2023-11-19T10:01:38;96657.34;;;13.64;99.51
43486;BME280;30447;48.742;8.972;2023-11-19T10:04:06;96653.28;;;13.44;99.46
43486;BME280;30447;48.742;8.972;2023-11-19T10:06:33;96635.53;;;13.70;98.09
43486;BME280;30447;48.742;8.972;2023-11-19T10:09:00;96632.28;;;13.57;100.00
43486;BME280;30447;48.742;8.972;2023-11-19T10:11:26;96632.31;;;13.55;97.87
43486;BME280;30447;48.742;8.972;2023-11-19T10:13:53;96627.94;;;13.59;99.28
43486;BME280;30447;48.742;8.972;2023-11-19T10:16:20;96627.25;;;13.44;100.00
43486;BME280;30447;48.742;8.972;2023-11-19T10:18:48;96638.50;;;13.46;99.03
43486;BME280;30447;48.742;8.972;2023-11-19T10:21:19;96639.19;;;13.59;99.99
43486;BME280;30447;48.742;8.972;2023-11-19T10:23:53;96628.34;;;13.83;98.27
43486;BME280;30447;48.742;8.972;2023-11-19T10:26:21;96635.25;;;13.85;98.21
43486;BME280;30447;48.742;8.972;2023-11-19T10:28:49;96635.62;;;13.65;97.08
43486;BME280;30447;48.742;8.972;2023-11-19T10:31:17;96632.22;;;13.61;98.28
43486;BME280;30447;48.742;8.972;2023-11-19T10:33:46;96637.66;;;13.96;96.73
43486;BME280;30447;48.742;8.972;2023-11-19T10:36:13;96630.97;;;13.83;95.92
43486;BME280;30447;48.742;8.972;2023-11-19T10:38:54;96636.72;;;14.02;95.57
43486;BME280;30447;48.742;8.972;2023-11-19T10:41:30;96635.84;;;14.01;95.01
43486;BME280;30447;48.742;8.972;2023-11-19T10:43:58;96635.66;;;14.12;92.93
43486;BME280;30447;48.742;8.972;2023-11-19T10:46:42;96630.56;;;14.06;92.55
43486;BME280;30447;48.742;8.972;2023-11-19T10:49:09;96637.13;;;14.26;92.03
43486;BME280;30447;48.742;8.972;2023-11-19T10:51:45;96611.84;;;14.31;90.52
43486;BME280;30447;48.742;8.972;2023-11-19T10:54:18;96620.69;;;14.22;90.62
43486;BME280;30447;48.742;8.972;2023-11-19T10:56:54;96612.78;;;14.27;88.27
43486;BME280;30447;48.742;8.972;2023-11-19T10:59:22;96604.94;;;14.28;86.93
43486;BME280;30447;48.742;8.972;2023-11-19T11:01:53;96612.97;;;14.18;88.58
43486;BME280;30447;48.742;8.972;2023-11-19T11:04:23;96613.00;;;14.16;88.31
43486;BME280;30447;48.742;8.972;2023-11-19T11:06:55;96613.38;;;14.41;88.49
43486;BME280;30447;48.742;8.972;2023-11-19T11:09:30;96616.22;;;14.29;88.38
43486;BME280;30447;48.742;8.972;2023-11-19T11:11:57;96615.66;;;14.57;87.30
43486;BME280;30447;48.742;8.972;2023-11-19T11:14:27;96621.03;;;14.49;86.35
43486;BME280;30447;48.742;8.972;2023-11-19T11:16:56;96612.69;;;14.32;86.51
43486;BME280;30447;48.742;8.972;2023-11-19T11:19:24;96625.56;;;14.39;86.23
43486;BME280;30447;48.742;8.972;2023-11-19T11:21:54;96612.13;;;14.60;84.11
43486;BME280;30447;48.742;8.972;2023-11-19T11:24:54;96632.25;;;14.53;85.22
43486;BME280;30447;48.742;8.972;2023-11-19T11:27:48;96636.47;;;14.14;86.82
43486;BME280;30447;48.742;8.972;2023-11-19T11:30:43;96628.34;;;14.30;86.34
43486;BME280;30447;48.742;8.972;2023-11-19T11:36:23;96619.28;;;14.48;86.40
43486;BME280;30447;48.742;8.972;2023-11-19T11:38:50;96611.53;;;14.47;85.99
43486;BME280;30447;48.742;8.972;2023-11-19T11:41:21;96615.53;;;14.62;85.85
43486;BME280;30447;48.742;8.972;2023-11-19T11:43:50;96614.03;;;14.50;87.25
43486;BME280;30447;48.742;8.972;2023-11-19T11:49:07;96594.16;;;14.46;87.36
43486;BME280;30447;48.742;8.972;2023-11-19T12:00:02;96608.66;;;14.59;84.94
43486;BME280;30447;48.742;8.972;2023-11-19T12:02:31;96600.06;;;14.54;85.63
43486;BME280;30447;48.742;8.972;2023-11-19T12:04:58;96596.81;;;14.44;86.08
43486;BME280;30447;48.742;8.972;2023-11-19T12:07:30;96613.97;;;14.54;84.01
43486;BME280;30447;48.742;8.972;2023-11-19T12:10:07;96598.50;;;14.47;82.43
43486;BME280;30447;48.742;8.972;2023-11-19T12:12:37;96599.50;;;14.82;82.51
43486;BME280;30447;48.742;8.972;2023-11-19T12:15:08;96592.66;;;14.76;82.36
43486;BME280;30447;48.742;8.972;2023-11-19T12:17:44;96597.81;;;14.79;83.49
43486;BME280;30447;48.742;8.972;2023-11-19T12:20:19;96593.34;;;14.85;79.78
43486;BME280;30447;48.742;8.972;2023-11-19T12:22:48;96580.53;;;14.75;77.79
43486;BME280;30447;48.742;8.972;2023-11-19T12:25:16;96581.56;;;14.66;80.22
43486;BME280;30447;48.742;8.972;2023-11-19T12:27:50;96571.06;;;14.28;79.46
43486;BME280;30447;48.742;8.972;2023-11-19T12:30:23;96574.59;;;14.67;78.12
43486;BME280;30447;48.742;8.972;2023-11-19T12:32:51;96570.63;;;14.49;79.53
43486;BME280;30447;48.742;8.972;2023-11-19T12:35:19;96560.38;;;14.41;79.64
43486;BME280;30447;48.742;8.972;2023-11-19T12:37:48;96572.91;;;14.64;79.49
43486;BME280;30447;48.742;8.972;2023-11-19T12:40:25;96602.47;;;14.63;77.86
43486;BME280;30447;48.742;8.972;2023-11-19T12:42:53;96568.06;;;14.47;79.34
43486;BME280;30447;48.742;8.972;2023-11-19T12:45:21;96566.72;;;14.68;79.12
43486;BME280;30447;48.742;8.972;2023-11-19T12:47:50;96549.75;;;14.91;78.37
43486;BME280;30447;48.742;8.972;2023-11-19T12:50:50;96560.47;;;14.77;77.99
43486;BME280;30447;48.742;8.972;2023-11-19T12:53:22;96555.00;;;14.90;76.91
43486;BME280;30447;48.742;8.972;2023-11-19T12:55:49;96549.50;;;15.01;76.77
43486;BME280;30447;48.742;8.972;2023-11-19T12:58:32;96558.13;;;14.65;76.66
43486;BME280;30447;48.742;8.972;2023-11-19T13:01:04;96563.13;;;14.74;76.26
43486;BME280;30447;48.742;8.972;2023-11-19T13:03:34;96560.16;;;14.91;76.01
43486;BME280;30447;48.742;8.972;2023-11-19T13:06:07;96554.50;;;14.71;75.34
43486;BME280;30447;48.742;8.972;2023-11-19T13:08:45;96555.00;;;14.49;74.87
43486;BME280;30447;48.742;8.972;2023-11-19T13:11:14;96563.09;;;14.36;76.22
43486;BME280;30447;48.742;8.972;2023-11-19T13:13:55;96554.34;;;14.39;75.54
43486;BME280;30447;48.742;8.972;2023-11-19T13:16:23;96552.75;;;14.71;75.30